KTN weather

Ketchikan International Airport
Ketchikan, Alaska, United States

Public forecast

Using degrees Fahrenheit for public forecast. Weather courtesy of forecast.io.

METAR (pilot weather report)

Retrieved 2019/07/22 06:53 UTC (52 minutes ago):

PAKT 220653Z AUTO 17005KT 10SM CLR 15/11 A3005

TAF (pilot weather forecast)

Retrieved 2019/07/22 06:28 UTC (1 hour ago):

TAF PAKT 220526Z 2206/2306 14005KT P6SM FEW030 BKN120 FM221300 33007KT P6SM BKN100 AMD LTD TO CLD VIS AND WIND 2206/2215